sensor_id;sensor_type;location;lat;lon;timestamp;pressure;altitude;pressure_sealevel;temperature;humidity
60212;BME280;46079;48.686;15.598;2023-03-01T00:01:02;100923.13;;;19.92;38.24
60212;BME280;46079;48.686;15.598;2023-03-01T00:03:28;100925.78;;;19.92;38.20
60212;BME280;46079;48.686;15.598;2023-03-01T00:05:54;100926.59;;;19.93;38.35
60212;BME280;46079;48.686;15.598;2023-03-01T00:08:19;100926.59;;;19.93;38.37
60212;BME280;46079;48.686;15.598;2023-03-01T00:10:44;100928.28;;;19.94;38.51
60212;BME280;46079;48.686;15.598;2023-03-01T00:13:10;100930.91;;;19.94;38.28
60212;BME280;46079;48.686;15.598;2023-03-01T00:15:38;100911.69;;;19.93;38.60
60212;BME280;46079;48.686;15.598;2023-03-01T00:18:05;100919.47;;;19.95;38.43
60212;BME280;46079;48.686;15.598;2023-03-01T00:20:30;100915.03;;;19.95;38.59
60212;BME280;46079;48.686;15.598;2023-03-01T00:22:55;100915.03;;;19.95;38.57
60212;BME280;46079;48.686;15.598;2023-03-01T00:25:21;100919.38;;;19.96;38.63
60212;BME280;46079;48.686;15.598;2023-03-01T00:27:47;100916.72;;;19.96;38.60
60212;BME280;46079;48.686;15.598;2023-03-01T00:30:14;100922.81;;;19.97;38.46
60212;BME280;46079;48.686;15.598;2023-03-01T00:32:40;100923.66;;;19.97;38.41
60212;BME280;46079;48.686;15.598;2023-03-01T00:35:05;100923.66;;;19.97;38.62
60212;BME280;46079;48.686;15.598;2023-03-01T00:37:31;100928.78;;;19.99;38.66
60212;BME280;46079;48.686;15.598;2023-03-01T00:39:56;100921.75;;;19.99;38.52
60212;BME280;46079;48.686;15.598;2023-03-01T00:42:22;100923.44;;;20.01;38.64
60212;BME280;46079;48.686;15.598;2023-03-01T00:44:47;100920.81;;;20.01;38.58
60212;BME280;46079;48.686;15.598;2023-03-01T00:47:13;100910.28;;;20.01;38.68
60212;BME280;46079;48.686;15.598;2023-03-01T00:49:39;100911.97;;;20.02;38.65
60212;BME280;46079;48.686;15.598;2023-03-01T00:52:04;100904.09;;;20.02;38.72
60212;BME280;46079;48.686;15.598;2023-03-01T00:54:30;100905.78;;;20.03;38.56
60212;BME280;46079;48.686;15.598;2023-03-01T00:56:56;100906.63;;;20.03;38.67
60212;BME280;46079;48.686;15.598;2023-03-01T00:59:21;100902.19;;;20.04;38.57
60212;BME280;46079;48.686;15.598;2023-03-01T01:01:47;100897.78;;;20.04;38.72
60212;BME280;46079;48.686;15.598;2023-03-01T01:04:13;100895.97;;;20.05;38.75
60212;BME280;46079;48.686;15.598;2023-03-01T01:06:43;100905.56;;;20.06;38.72
60212;BME280;46079;48.686;15.598;2023-03-01T01:09:11;100896.72;;;20.07;38.94
60212;BME280;46079;48.686;15.598;2023-03-01T01:11:48;100892.28;;;20.07;38.70
60212;BME280;46079;48.686;15.598;2023-03-01T01:14:14;100898.41;;;20.08;38.92
60212;BME280;46079;48.686;15.598;2023-03-01T01:16:40;100889.56;;;20.09;38.87
60212;BME280;46079;48.686;15.598;2023-03-01T01:19:06;100894.81;;;20.09;38.96
60212;BME280;46079;48.686;15.598;2023-03-01T01:21:34;100895.66;;;20.09;38.77
60212;BME280;46079;48.686;15.598;2023-03-01T01:24:03;100885.97;;;20.10;38.92
60212;BME280;46079;48.686;15.598;2023-03-01T01:26:31;100882.41;;;20.11;38.75
60212;BME280;46079;48.686;15.598;2023-03-01T01:28:57;100886.84;;;20.10;38.90
60212;BME280;46079;48.686;15.598;2023-03-01T01:31:24;100877.16;;;20.11;38.80
60212;BME280;46079;48.686;15.598;2023-03-01T01:33:51;100878.09;;;20.10;38.95
60212;BME280;46079;48.686;15.598;2023-03-01T01:36:17;100877.16;;;20.11;38.61
60212;BME280;46079;48.686;15.598;2023-03-01T01:38:43;100877.88;;;20.13;38.86
60212;BME280;46079;48.686;15.598;2023-03-01T01:41:09;100875.25;;;20.13;38.88
60212;BME280;46079;48.686;15.598;2023-03-01T01:47:27;100867.25;;;20.14;38.87
60212;BME280;46079;48.686;15.598;2023-03-01T01:49:32;100870.72;;;20.15;38.53
60212;BME280;46079;48.686;15.598;2023-03-01T01:52:07;100868.09;;;20.15;38.58
60212;BME280;46079;48.686;15.598;2023-03-01T01:54:40;100864.75;;;20.13;38.85
60212;BME280;46079;48.686;15.598;2023-03-01T01:57:12;100868.09;;;20.15;38.76
60212;BME280;46079;48.686;15.598;2023-03-01T01:59:40;100879.44;;;20.15;38.80
60212;BME280;46079;48.686;15.598;2023-03-01T02:02:08;100867.03;;;20.17;38.65
60212;BME280;46079;48.686;15.598;2023-03-01T02:04:33;100864.41;;;20.17;38.86
60212;BME280;46079;48.686;15.598;2023-03-01T02:07:13;100861.78;;;20.17;38.98
60212;BME280;46079;48.686;15.598;2023-03-01T02:09:39;100858.22;;;20.18;38.77
60212;BME280;46079;48.686;15.598;2023-03-01T02:12:06;100859.06;;;20.19;38.75
60212;BME280;46079;48.686;15.598;2023-03-01T02:14:32;100861.56;;;20.20;38.76
60212;BME280;46079;48.686;15.598;2023-03-01T02:16:57;100853.81;;;20.19;38.65
60212;BME280;46079;48.686;15.598;2023-03-01T02:19:41;100855.47;;;20.20;38.99
60212;BME280;46079;48.686;15.598;2023-03-01T02:22:30;100857.13;;;20.21;38.89
60212;BME280;46079;48.686;15.598;2023-03-01T02:30:36;100854.31;;;20.24;38.81
60212;BME280;46079;48.686;15.598;2023-03-01T02:33:03;100849.97;;;20.23;38.99
60212;BME280;46079;48.686;15.598;2023-03-01T02:35:32;100847.25;;;20.25;38.89
60212;BME280;46079;48.686;15.598;2023-03-01T02:38:00;100853.34;;;20.25;38.81
60212;BME280;46079;48.686;15.598;2023-03-01T02:40:28;100848.09;;;20.25;39.01
60212;BME280;46079;48.686;15.598;2023-03-01T02:42:56;100848.91;;;20.26;38.72
60212;BME280;46079;48.686;15.598;2023-03-01T02:45:22;100854.16;;;20.26;38.87
60212;BME280;46079;48.686;15.598;2023-03-01T02:47:48;100843.66;;;20.26;38.88
60212;BME280;46079;48.686;15.598;2023-03-01T02:53:12;100844.38;;;20.28;39.12
60212;BME280;46079;48.686;15.598;2023-03-01T02:55:40;100844.38;;;20.28;38.98
60212;BME280;46079;48.686;15.598;2023-03-01T02:58:06;100847.84;;;20.28;38.84
60212;BME280;46079;48.686;15.598;2023-03-01T03:00:36;100839.00;;;20.29;39.11
60212;BME280;46079;48.686;15.598;2023-03-01T03:03:06;100840.69;;;20.30;39.00
60212;BME280;46079;48.686;15.598;2023-03-01T03:05:32;100832.81;;;20.30;39.07
60212;BME280;46079;48.686;15.598;2023-03-01T03:08:00;100836.28;;;20.31;38.92
60212;BME280;46079;48.686;15.598;2023-03-01T03:10:35;100837.09;;;20.31;39.00
60212;BME280;46079;48.686;15.598;2023-03-01T03:13:03;100833.53;;;20.32;39.06
60212;BME280;46079;48.686;15.598;2023-03-01T03:15:30;100831.84;;;20.31;39.09
60212;BME280;46079;48.686;15.598;2023-03-01T03:17:57;100836.19;;;20.32;38.94
60212;BME280;46079;48.686;15.598;2023-03-01T03:20:24;100836.88;;;20.34;39.14
60212;BME280;46079;48.686;15.598;2023-03-01T03:22:52;100828.16;;;20.34;39.24
60212;BME280;46079;48.686;15.598;2023-03-01T03:25:19;100821.09;;;20.34;39.15
60212;BME280;46079;48.686;15.598;2023-03-01T03:27:46;100821.94;;;20.35;39.00
60212;BME280;46079;48.686;15.598;2023-03-01T03:30:18;100819.31;;;20.35;38.97
60212;BME280;46079;48.686;15.598;2023-03-01T03:32:46;100812.28;;;20.35;39.25
60212;BME280;46079;48.686;15.598;2023-03-01T03:35:24;100818.38;;;20.36;38.93
60212;BME280;46079;48.686;15.598;2023-03-01T03:37:51;100817.41;;;20.37;39.09
60212;BME280;46079;48.686;15.598;2023-03-01T03:40:37;100828.75;;;20.37;39.19
60212;BME280;46079;48.686;15.598;2023-03-01T03:43:05;100827.81;;;20.38;39.17
60212;BME280;46079;48.686;15.598;2023-03-01T03:45:30;100831.28;;;20.39;39.02
60212;BME280;46079;48.686;15.598;2023-03-01T03:47:59;100827.81;;;20.38;39.06
60212;BME280;46079;48.686;15.598;2023-03-01T03:50:24;100826.84;;;20.39;39.32
60212;BME280;46079;48.686;15.598;2023-03-01T03:52:50;100829.50;;;20.39;39.25
60212;BME280;46079;48.686;15.598;2023-03-01T03:55:15;100820.66;;;20.40;39.07
60212;BME280;46079;48.686;15.598;2023-03-01T03:57:45;100815.41;;;20.40;39.24
60212;BME280;46079;48.686;15.598;2023-03-01T04:00:18;100816.25;;;20.41;39.21
60212;BME280;46079;48.686;15.598;2023-03-01T04:02:45;100817.06;;;20.41;39.05
60212;BME280;46079;48.686;15.598;2023-03-01T04:05:12;100817.91;;;20.42;39.08
60212;BME280;46079;48.686;15.598;2023-03-01T04:07:39;100817.91;;;20.42;39.29
60212;BME280;46079;48.686;15.598;2023-03-01T04:10:07;100815.19;;;20.43;39.23
60212;BME280;46079;48.686;15.598;2023-03-01T04:12:34;100820.31;;;20.45;39.00
60212;BME280;46079;48.686;15.598;2023-03-01T04:15:00;100816.84;;;20.44;39.12
60212;BME280;46079;48.686;15.598;2023-03-01T04:17:27;100806.31;;;20.44;39.12
60212;BME280;46079;48.686;15.598;2023-03-01T04:19:52;100811.59;;;20.44;39.32
60212;BME280;46079;48.686;15.598;2023-03-01T04:22:18;100814.13;;;20.46;38.97
60212;BME280;46079;48.686;15.598;2023-03-01T04:24:44;100822.81;;;20.47;39.43
60212;BME280;46079;48.686;15.598;2023-03-01T04:27:10;100814.94;;;20.47;39.23
60212;BME280;46079;48.686;15.598;2023-03-01T04:29:36;100814.94;;;20.47;39.35
60212;BME280;46079;48.686;15.598;2023-03-01T04:32:01;100821.84;;;20.48;39.28
60212;BME280;46079;48.686;15.598;2023-03-01T04:34:28;100825.44;;;20.47;39.40
60212;BME280;46079;48.686;15.598;2023-03-01T04:36:54;100830.72;;;20.47;39.44
60212;BME280;46079;48.686;15.598;2023-03-01T04:39:19;100831.44;;;20.49;39.29
60212;BME280;46079;48.686;15.598;2023-03-01T04:41:45;100832.38;;;20.48;39.43
60212;BME280;46079;48.686;15.598;2023-03-01T04:44:10;100830.47;;;20.50;39.40
60212;BME280;46079;48.686;15.598;2023-03-01T04:46:36;100819.00;;;20.51;39.49
60212;BME280;46079;48.686;15.598;2023-03-01T04:49:02;100824.25;;;20.51;39.50
60212;BME280;46079;48.686;15.598;2023-03-01T04:51:28;100819.81;;;20.51;39.47
60212;BME280;46079;48.686;15.598;2023-03-01T04:53:53;100826.78;;;20.52;39.38
60212;BME280;46079;48.686;15.598;2023-03-01T04:56:19;100820.69;;;20.52;39.36
60212;BME280;46079;48.686;15.598;2023-03-01T04:58:45;100828.56;;;20.52;39.43
60212;BME280;46079;48.686;15.598;2023-03-01T05:01:13;100819.72;;;20.53;39.56
60212;BME280;46079;48.686;15.598;2023-03-01T05:03:50;100831.00;;;20.55;39.38
60212;BME280;46079;48.686;15.598;2023-03-01T05:06:17;100829.31;;;20.54;39.43
60212;BME280;46079;48.686;15.598;2023-03-01T05:08:44;100833.63;;;20.55;39.52
60212;BME280;46079;48.686;15.598;2023-03-01T05:11:10;100826.56;;;20.55;39.47
60212;BME280;46079;48.686;15.598;2023-03-01T05:13:37;100818.69;;;20.55;39.61
60212;BME280;46079;48.686;15.598;2023-03-01T05:16:05;100828.38;;;20.55;39.31
60212;BME280;46079;48.686;15.598;2023-03-01T05:18:33;100826.56;;;20.55;39.46
60212;BME280;46079;48.686;15.598;2023-03-01T05:21:04;100819.53;;;20.56;39.65
60212;BME280;46079;48.686;15.598;2023-03-01T05:23:31;100816.88;;;20.56;39.47
60212;BME280;46079;48.686;15.598;2023-03-01T05:26:01;100828.13;;;20.58;39.53
60212;BME280;46079;48.686;15.598;2023-03-01T05:28:27;100826.47;;;20.57;39.51
60212;BME280;46079;48.686;15.598;2023-03-01T05:30:54;100838.66;;;20.58;39.73
60212;BME280;46079;48.686;15.598;2023-03-01T05:33:19;100836.03;;;20.58;39.67
60212;BME280;46079;48.686;15.598;2023-03-01T05:35:47;100834.22;;;20.58;39.45
60212;BME280;46079;48.686;15.598;2023-03-01T05:38:14;100844.63;;;20.60;39.69
60212;BME280;46079;48.686;15.598;2023-03-01T05:40:44;100836.75;;;20.60;39.60
60212;BME280;46079;48.686;15.598;2023-03-01T05:43:11;100847.25;;;20.60;39.50
60212;BME280;46079;48.686;15.598;2023-03-01T05:45:38;100844.63;;;20.60;39.71
60212;BME280;46079;48.686;15.598;2023-03-01T05:48:04;100854.19;;;20.61;39.88
60212;BME280;46079;48.686;15.598;2023-03-01T05:50:33;100855.84;;;20.62;39.69
60212;BME280;46079;48.686;15.598;2023-03-01T05:53:01;100861.09;;;20.62;39.61
60212;BME280;46079;48.686;15.598;2023-03-01T05:55:28;100863.72;;;20.62;39.33
60212;BME280;46079;48.686;15.598;2023-03-01T05:57:54;100861.09;;;20.62;38.60
60212;BME280;46079;48.686;15.598;2023-03-01T06:00:20;100861.09;;;20.62;38.33
60212;BME280;46079;48.686;15.598;2023-03-01T06:02:49;100862.78;;;20.63;38.03
60212;BME280;46079;48.686;15.598;2023-03-01T06:05:17;100863.63;;;20.63;38.00
60212;BME280;46079;48.686;15.598;2023-03-01T06:07:43;100864.47;;;20.64;37.75
60212;BME280;46079;48.686;15.598;2023-03-01T06:10:10;100857.53;;;20.63;37.71
60212;BME280;46079;48.686;15.598;2023-03-01T06:12:37;100860.16;;;20.63;37.69
60212;BME280;46079;48.686;15.598;2023-03-01T06:15:04;100862.78;;;20.63;37.63
60212;BME280;46079;48.686;15.598;2023-03-01T06:17:32;100855.75;;;20.63;37.54
60212;BME280;46079;48.686;15.598;2023-03-01T06:19:58;100852.28;;;20.63;37.48
60212;BME280;46079;48.686;15.598;2023-03-01T06:22:23;100857.53;;;20.63;37.60
60212;BME280;46079;48.686;15.598;2023-03-01T06:24:49;100858.38;;;20.63;37.34
60212;BME280;46079;48.686;15.598;2023-03-01T06:27:15;100854.91;;;20.63;37.79
60212;BME280;46079;48.686;15.598;2023-03-01T06:29:40;100856.56;;;20.64;37.33
60212;BME280;46079;48.686;15.598;2023-03-01T06:32:06;100853.13;;;20.63;37.50
60212;BME280;46079;48.686;15.598;2023-03-01T06:34:33;100855.59;;;20.65;37.20
60212;BME280;46079;48.686;15.598;2023-03-01T06:36:59;100857.53;;;20.63;37.21
60212;BME280;46079;48.686;15.598;2023-03-01T06:39:24;100863.63;;;20.63;37.20
60212;BME280;46079;48.686;15.598;2023-03-01T06:41:50;100862.78;;;20.63;37.32
60212;BME280;46079;48.686;15.598;2023-03-01T06:44:15;100867.09;;;20.64;37.45
60212;BME280;46079;48.686;15.598;2023-03-01T06:46:40;100873.31;;;20.63;37.38
60212;BME280;46079;48.686;15.598;2023-03-01T06:49:06;100868.06;;;20.63;37.35
60212;BME280;46079;48.686;15.598;2023-03-01T06:51:36;100883.00;;;20.62;37.21
60212;BME280;46079;48.686;15.598;2023-03-01T06:54:03;100874.13;;;20.63;37.28
60212;BME280;46079;48.686;15.598;2023-03-01T06:56:30;100873.31;;;20.63;37.13
60212;BME280;46079;48.686;15.598;2023-03-01T06:58:55;100863.63;;;20.63;37.15
60212;BME280;46079;48.686;15.598;2023-03-01T07:01:21;100868.88;;;20.63;37.19
60212;BME280;46079;48.686;15.598;2023-03-01T07:03:46;100861.97;;;20.62;37.35
60212;BME280;46079;48.686;15.598;2023-03-01T07:06:12;100864.59;;;20.62;37.52
60212;BME280;46079;48.686;15.598;2023-03-01T07:08:37;100866.34;;;20.62;37.24
60212;BME280;46079;48.686;15.598;2023-03-01T07:11:03;100868.88;;;20.63;37.11
60212;BME280;46079;48.686;15.598;2023-03-01T07:13:29;100862.78;;;20.63;37.20
60212;BME280;46079;48.686;15.598;2023-03-01T07:15:55;100857.53;;;20.63;37.12
60212;BME280;46079;48.686;15.598;2023-03-01T07:18:21;100851.56;;;20.61;37.56
60212;BME280;46079;48.686;15.598;2023-03-01T07:20:46;100866.34;;;20.62;37.83
60212;BME280;46079;48.686;15.598;2023-03-01T07:23:12;100869.72;;;20.64;38.06
60212;BME280;46079;48.686;15.598;2023-03-01T07:25:37;100866.34;;;20.62;38.25
60212;BME280;46079;48.686;15.598;2023-03-01T07:28:03;100856.72;;;20.62;38.35
60212;BME280;46079;48.686;15.598;2023-03-01T07:30:28;100872.34;;;20.64;38.22
60212;BME280;46079;48.686;15.598;2023-03-01T07:32:55;100865.44;;;20.63;38.32
60212;BME280;46079;48.686;15.598;2023-03-01T07:35:21;100863.63;;;20.63;38.25
60212;BME280;46079;48.686;15.598;2023-03-01T07:37:47;100855.00;;;20.61;38.08
60212;BME280;46079;48.686;15.598;2023-03-01T07:40:12;100863.63;;;20.63;38.19
60212;BME280;46079;48.686;15.598;2023-03-01T07:42:38;100854.91;;;20.63;38.20
60212;BME280;46079;48.686;15.598;2023-03-01T07:45:07;100853.22;;;20.62;38.30
60212;BME280;46079;48.686;15.598;2023-03-01T07:47:32;100851.56;;;20.61;38.36
60212;BME280;46079;48.686;15.598;2023-03-01T07:49:58;100856.81;;;20.61;38.20
60212;BME280;46079;48.686;15.598;2023-03-01T07:52:24;100850.72;;;20.60;38.22
60212;BME280;46079;48.686;15.598;2023-03-01T07:54:49;100861.09;;;20.62;38.28
60212;BME280;46079;48.686;15.598;2023-03-01T07:57:15;100855.16;;;20.60;38.33
60212;BME280;46079;48.686;15.598;2023-03-01T07:59:40;100861.09;;;20.62;38.28
60212;BME280;46079;48.686;15.598;2023-03-01T08:02:06;100857.78;;;20.60;38.15
60212;BME280;46079;48.686;15.598;2023-03-01T08:04:32;100849.88;;;20.60;38.31
60212;BME280;46079;48.686;15.598;2023-03-01T08:06:58;100850.72;;;20.60;38.29
60212;BME280;46079;48.686;15.598;2023-03-01T08:09:23;100857.88;;;20.58;38.24
60212;BME280;46079;48.686;15.598;2023-03-01T08:11:49;100859.53;;;20.59;38.36
60212;BME280;46079;48.686;15.598;2023-03-01T08:14:14;100862.16;;;20.59;38.21
60212;BME280;46079;48.686;15.598;2023-03-01T08:16:40;100850.81;;;20.59;38.31
60212;BME280;46079;48.686;15.598;2023-03-01T08:19:06;100849.88;;;20.60;38.37
60212;BME280;46079;48.686;15.598;2023-03-01T08:21:32;100853.34;;;20.60;38.23
60212;BME280;46079;48.686;15.598;2023-03-01T08:24:03;100848.94;;;20.61;38.35
60212;BME280;46079;48.686;15.598;2023-03-01T08:26:29;100858.59;;;20.60;38.28
60212;BME280;46079;48.686;15.598;2023-03-01T08:28:54;100855.97;;;20.60;38.18
60212;BME280;46079;48.686;15.598;2023-03-01T08:33:47;100858.47;;;20.62;38.27
60212;BME280;46079;48.686;15.598;2023-03-01T08:36:21;100850.72;;;20.60;38.25
60212;BME280;46079;48.686;15.598;2023-03-01T08:38:46;100857.63;;;20.61;38.19
60212;BME280;46079;48.686;15.598;2023-03-01T08:41:12;100848.94;;;20.61;38.01
60212;BME280;46079;48.686;15.598;2023-03-01T08:43:37;100847.97;;;20.62;38.15
60212;BME280;46079;48.686;15.598;2023-03-01T08:46:03;100839.25;;;20.61;38.00
60212;BME280;46079;48.686;15.598;2023-03-01T08:48:28;100840.94;;;20.62;38.01
60212;BME280;46079;48.686;15.598;2023-03-01T08:50:54;100839.13;;;20.63;37.95
60212;BME280;46079;48.686;15.598;2023-03-01T08:53:30;100834.81;;;20.62;37.96
60212;BME280;46079;48.686;15.598;2023-03-01T08:55:59;100827.91;;;20.61;37.99
60212;BME280;46079;48.686;15.598;2023-03-01T08:58:25;100828.63;;;20.63;38.01
60212;BME280;46079;48.686;15.598;2023-03-01T09:00:50;100832.19;;;20.62;38.01
60212;BME280;46079;48.686;15.598;2023-03-01T09:03:16;100830.28;;;20.64;38.07
60212;BME280;46079;48.686;15.598;2023-03-01T09:05:41;100830.28;;;20.64;38.04
60212;BME280;46079;48.686;15.598;2023-03-01T09:08:06;100827.66;;;20.64;38.14
60212;BME280;46079;48.686;15.598;2023-03-01T09:10:37;100822.41;;;20.64;38.09
60212;BME280;46079;48.686;15.598;2023-03-01T09:13:02;100818.09;;;20.63;37.99
60212;BME280;46079;48.686;15.598;2023-03-01T09:15:28;100811.88;;;20.64;38.06
60212;BME280;46079;48.686;15.598;2023-03-01T09:17:56;100811.88;;;20.64;38.15
60212;BME280;46079;48.686;15.598;2023-03-01T09:20:21;100804.97;;;20.63;38.16
60212;BME280;46079;48.686;15.598;2023-03-01T09:22:47;100798.00;;;20.62;38.20
60212;BME280;46079;48.686;15.598;2023-03-01T09:25:12;100800.66;;;20.62;38.12
60212;BME280;46079;48.686;15.598;2023-03-01T09:27:38;100798.88;;;20.62;38.03
60212;BME280;46079;48.686;15.598;2023-03-01T09:30:04;100795.28;;;20.63;38.05
60212;BME280;46079;48.686;15.598;2023-03-01T09:32:30;100792.75;;;20.62;38.15
60212;BME280;46079;48.686;15.598;2023-03-01T09:34:56;100789.19;;;20.63;38.07
60212;BME280;46079;48.686;15.598;2023-03-01T09:37:35;100791.94;;;20.61;38.06
60212;BME280;46079;48.686;15.598;2023-03-01T09:40:01;100789.19;;;20.63;38.07
60212;BME280;46079;48.686;15.598;2023-03-01T09:42:29;100792.75;;;20.62;38.00
60212;BME280;46079;48.686;15.598;2023-03-01T09:45:05;100782.25;;;20.62;38.13
60212;BME280;46079;48.686;15.598;2023-03-01T09:47:35;100787.50;;;20.62;38.12
60212;BME280;46079;48.686;15.598;2023-03-01T09:50:18;100782.25;;;20.62;38.15
60212;BME280;46079;48.686;15.598;2023-03-01T09:52:59;100773.53;;;20.61;38.19
60212;BME280;46079;48.686;15.598;2023-03-01T09:56:03;100775.31;;;20.61;38.26
60212;BME280;46079;48.686;15.598;2023-03-01T10:01:27;100763.00;;;20.61;38.03
60212;BME280;46079;48.686;15.598;2023-03-01T10:07:02;100759.56;;;20.61;38.24
60212;BME280;46079;48.686;15.598;2023-03-01T10:09:34;100756.09;;;20.60;38.20
60212;BME280;46079;48.686;15.598;2023-03-01T10:12:02;100755.38;;;20.58;38.15
60212;BME280;46079;48.686;15.598;2023-03-01T10:14:36;100764.09;;;20.59;38.35
60212;BME280;46079;48.686;15.598;2023-03-01T10:17:08;100747.47;;;20.58;38.30
60212;BME280;46079;48.686;15.598;2023-03-01T10:19:41;100752.75;;;20.58;38.29
60212;BME280;46079;48.686;15.598;2023-03-01T10:22:16;100744.03;;;20.58;38.10
60212;BME280;46079;48.686;15.598;2023-03-01T10:24:44;100746.66;;;20.58;38.14
60212;BME280;46079;48.686;15.598;2023-03-01T10:27:22;100745.81;;;20.57;38.02
60212;BME280;46079;48.686;15.598;2023-03-01T10:32:14;100736.25;;;20.56;38.15
60212;BME280;46079;48.686;15.598;2023-03-01T10:34:40;100730.16;;;20.56;38.23
60212;BME280;46079;48.686;15.598;2023-03-01T10:39:35;100726.59;;;20.57;38.02
60212;BME280;46079;48.686;15.598;2023-03-01T10:42:04;100730.16;;;20.56;38.11
60212;BME280;46079;48.686;15.598;2023-03-01T10:44:47;100718.81;;;20.55;38.14
60212;BME280;46079;48.686;15.598;2023-03-01T10:47:25;100722.28;;;20.56;37.96
60212;BME280;46079;48.686;15.598;2023-03-01T10:50:03;100709.25;;;20.54;38.18
60212;BME280;46079;48.686;15.598;2023-03-01T10:52:34;100697.88;;;20.54;38.26
60212;BME280;46079;48.686;15.598;2023-03-01T10:57:41;100683.91;;;20.53;38.19
60212;BME280;46079;48.686;15.598;2023-03-01T11:00:21;100682.13;;;20.54;38.24
60212;BME280;46079;48.686;15.598;2023-03-01T11:03:10;100679.72;;;20.51;38.38
60212;BME280;46079;48.686;15.598;2023-03-01T11:05:33;100674.22;;;20.54;38.61
60212;BME280;46079;48.686;15.598;2023-03-01T11:08:00;100676.03;;;20.53;38.53
60212;BME280;46079;48.686;15.598;2023-03-01T11:10:34;100666.47;;;20.52;38.64
60212;BME280;46079;48.686;15.598;2023-03-01T11:13:19;100659.41;;;20.53;38.60
60212;BME280;46079;48.686;15.598;2023-03-01T11:16:10;100656.78;;;20.53;38.61
60212;BME280;46079;48.686;15.598;2023-03-01T11:18:36;100662.03;;;20.53;38.81
60212;BME280;46079;48.686;15.598;2023-03-01T11:21:03;100660.38;;;20.52;38.61
60212;BME280;46079;48.686;15.598;2023-03-01T11:23:30;100655.94;;;20.52;38.62
60212;BME280;46079;48.686;15.598;2023-03-01T11:25:58;100663.00;;;20.52;38.66
60212;BME280;46079;48.686;15.598;2023-03-01T11:28:25;100661.31;;;20.51;38.59
60212;BME280;46079;48.686;15.598;2023-03-01T11:31:03;100670.88;;;20.52;38.76
60212;BME280;46079;48.686;15.598;2023-03-01T11:36:01;100663.94;;;20.51;38.66
60212;BME280;46079;48.686;15.598;2023-03-01T11:38:29;100656.19;;;20.49;38.64
60212;BME280;46079;48.686;15.598;2023-03-01T11:43:56;100651.75;;;20.50;38.75
60212;BME280;46079;48.686;15.598;2023-03-01T11:51:55;100662.13;;;20.51;38.80
60212;BME280;46079;48.686;15.598;2023-03-01T11:57:26;100657.75;;;20.52;38.98
60212;BME280;46079;48.686;15.598;2023-03-01T12:26:13;100619.97;;;20.53;39.23
60212;BME280;46079;48.686;15.598;2023-03-01T12:40:13;100615.69;;;20.52;39.34
60212;BME280;46079;48.686;15.598;2023-03-01T12:45:34;100611.25;;;20.52;39.46
60212;BME280;46079;48.686;15.598;2023-03-01T12:49:10;100609.56;;;20.51;39.64
60212;BME280;46079;48.686;15.598;2023-03-01T12:51:13;100610.44;;;20.52;39.53
60212;BME280;46079;48.686;15.598;2023-03-01T12:53:50;100602.56;;;20.52;39.69
60212;BME280;46079;48.686;15.598;2023-03-01T12:56:22;100597.28;;;20.52;39.78
60212;BME280;46079;48.686;15.598;2023-03-01T13:01:59;100598.94;;;20.53;40.21
60212;BME280;46079;48.686;15.598;2023-03-01T13:04:50;100593.69;;;20.53;40.08
60212;BME280;46079;48.686;15.598;2023-03-01T13:07:37;100589.31;;;20.53;40.18
60212;BME280;46079;48.686;15.598;2023-03-01T13:12:50;100593.63;;;20.54;40.37
60212;BME280;46079;48.686;15.598;2023-03-01T13:17:50;100582.25;;;20.54;40.33
60212;BME280;46079;48.686;15.598;2023-03-01T13:20:19;100581.53;;;20.52;40.13
60212;BME280;46079;48.686;15.598;2023-03-01T13:22:46;100572.59;;;20.54;40.19
60212;BME280;46079;48.686;15.598;2023-03-01T13:25:19;100582.25;;;20.54;40.41
60212;BME280;46079;48.686;15.598;2023-03-01T13:27:46;100587.50;;;20.54;40.09
60212;BME280;46079;48.686;15.598;2023-03-01T13:33:40;100583.19;;;20.53;40.36
60212;BME280;46079;48.686;15.598;2023-03-01T13:36:06;100575.31;;;20.53;40.20
60212;BME280;46079;48.686;15.598;2023-03-01T13:38:55;100574.38;;;20.54;40.17
60212;BME280;46079;48.686;15.598;2023-03-01T13:49:40;100560.50;;;20.52;40.08
60212;BME280;46079;48.686;15.598;2023-03-01T13:54:46;100552.63;;;20.52;40.18
60212;BME280;46079;48.686;15.598;2023-03-01T13:57:20;100547.47;;;20.50;40.14
60212;BME280;46079;48.686;15.598;2023-03-01T13:59:47;100543.03;;;20.51;40.11
60212;BME280;46079;48.686;15.598;2023-03-01T14:02:13;100543.88;;;20.51;40.09
60212;BME280;46079;48.686;15.598;2023-03-01T14:04:38;100533.34;;;20.51;40.02
60212;BME280;46079;48.686;15.598;2023-03-01T14:07:16;100524.66;;;20.51;40.02
60212;BME280;46079;48.686;15.598;2023-03-01T14:09:44;100531.69;;;20.50;39.95
60212;BME280;46079;48.686;15.598;2023-03-01T14:22:49;100514.28;;;20.49;40.05
60212;BME280;46079;48.686;15.598;2023-03-01T14:25:31;100518.72;;;20.49;39.88
60212;BME280;46079;48.686;15.598;2023-03-01T14:31:03;100507.34;;;20.48;39.91
60212;BME280;46079;48.686;15.598;2023-03-01T14:38:27;100512.59;;;20.48;39.79
60212;BME280;46079;48.686;15.598;2023-03-01T14:40:57;100507.47;;;20.47;39.93
60212;BME280;46079;48.686;15.598;2023-03-01T14:43:24;100500.41;;;20.47;39.78
60212;BME280;46079;48.686;15.598;2023-03-01T14:45:53;100498.75;;;20.46;39.92
60212;BME280;46079;48.686;15.598;2023-03-01T14:48:22;100501.38;;;20.46;39.94
60212;BME280;46079;48.686;15.598;2023-03-01T14:50:48;100501.38;;;20.46;39.89